Aeroporto :
LOGIN :

Iscrizione | Disclaimer

   EN    FR    IT 

 










Sommario :    VFR   VFR Marginale   IFR   IFR Intensivo   IFR Molto Intensivo
Visibilità : 
Base nubi : 
>= 8 km
>= 3000ft
5 / 8 km
1000 / 3000 ft
1500m / 5 km
500 / 1000 ft
800 / 1500m
200 / 500 ft
< 800m
< 200 ft
Simboli :   Temporali  Nebbia  Neve Forte  Precipitazioni Forti  Vento > 20 kt
SIGMETs :   Varie  Temporali  Ghiacco  Turbolenza  Onda orograficha  Ceneri Vulcaniche







- Altitudine del aeroporto : 268 ft
- Codice IATA : BFS
- Carte del aeroporto


EGAA - Belfast Aldergrove

ULTIMO METAR :
  • 241920Z 14008KT 3900 -RA HZ FEW037 11/09 Q0989

METARs OBSOLETI :
  • 241850Z 14007KT 4200 -RA FEW038 BKN045 12/09 Q0989 RERA
  • 241820Z 14009KT 6000 -RA SCT048 13/09 Q0988
  • 241750Z 14012KT 9000 NSC 14/09 Q0988
  • 241720Z 13014KT 9000 NSC 14/09 Q0988
  • 241650Z 13009KT 100V160 9000 NSC 14/09 Q0988

TAF AMD TAF EGAA
Valido dal 24 a 18 ore il 25 a 18 ore UTC


241849Z 2418/2518 10009KT 9999 FEW015 SCT030
TEMPO 2418/2502 4000 SHRA SCT008 BKN012
PROB40
TEMPO 2510/2516 6000 +SHRA BKN014 BKN020CB
Nessun NOTAM noto per questo aeroporto.



MetMap, La meteo Aeronautica in un colpo d'occhio ! - Copyright ORBIFLY Dicembre 2007 - Disclaimer

ORBIFLY MET'MAP TEAM :

Programmazione e sviluppo : Alexandra Zaïnal
Concezione e sviluppo : Baudouin d'Aumeries
Co-Programmazione e sviluppo : Marc-Olivier Méhu
Supporto tecnico e logistico : Manuel Goepfert
Aiuto per la traduzione : Arnaldo La Scala

Contatto : metmap@orbifly.com




FONTI E CREDITI :

   NOAA